Time;durP1;ratioP1;P1;durP2;ratioP2;P2;SDS_P1;SDS_P2;PMS_P1;PMS_P2;Temp;Humidity;BMP_temperature;BMP_pressure;BME280_temperature;BME280_humidity;BME280_pressure;Samples;Min_cycle;Max_cycle;Signal;HPM_P1;HPM_P2
2022/06/07 00:00:41;;;;;;;1.60;1.03;;;;;;;11.37;100.00;99786.84;7398292;19;20390;-56
2022/06/07 00:03:10;;;;;;;4.30;1.57;;;;;;;11.41;100.00;99792.94;7388473;19;20486;-49
2022/06/07 00:05:43;;;;;;;2.27;1.30;;;;;;;11.36;100.00;99803.19;7398139;19;20386;-57
2022/06/07 00:08:16;;;;;;;2.80;1.30;;;;;;;11.38;100.00;99814.41;7389015;19;20436;-58
2022/06/07 00:10:46;;;;;;;2.10;1.40;;;;;;;11.41;100.00;99809.34;7394815;19;20469;-58
2022/06/07 00:13:17;;;;;;;1.70;1.30;;;;;;;11.32;100.00;99807.41;7387155;19;20432;-55
2022/06/07 00:15:47;;;;;;;1.80;1.50;;;;;;;11.33;100.00;99810.84;7394597;19;20385;-59
2022/06/07 00:18:17;;;;;;;3.37;1.47;;;;;;;11.33;100.00;99805.69;7388724;19;20827;-57
2022/06/07 00:20:49;;;;;;;2.13;1.60;;;;;;;11.36;100.00;99805.75;7396277;19;20386;-58
2022/06/07 00:23:20;;;;;;;2.07;1.87;;;;;;;11.33;100.00;99803.97;7387636;19;20832;-50
2022/06/07 00:25:52;;;;;;;2.17;1.70;;;;;;;11.32;100.00;99806.53;7395835;19;20380;-56
2022/06/07 00:28:22;;;;;;;2.60;1.93;;;;;;;11.33;100.00;99803.09;7387772;19;20449;-59
2022/06/07 00:30:53;;;;;;;2.47;2.10;;;;;;;11.31;100.00;99804.78;7395956;19;20465;-58
2022/06/07 00:33:23;;;;;;;9.73;2.37;;;;;;;11.31;100.00;99799.63;7387775;19;20435;-59
2022/06/07 00:35:56;;;;;;;4.30;3.10;;;;;;;11.29;100.00;99798.72;7395378;19;20389;-59
2022/06/07 00:38:25;;;;;;;3.83;2.60;;;;;;;11.31;100.00;99784.13;7389547;19;20916;-60
2022/06/07 00:40:55;;;;;;;3.80;2.03;;;;;;;11.33;100.00;99780.75;7395226;19;20420;-57
2022/06/07 00:43:25;;;;;;;4.10;2.40;;;;;;;11.32;100.00;99778.13;7387087;19;20443;-58
2022/06/07 00:45:55;;;;;;;4.00;2.77;;;;;;;11.35;100.00;99773.03;7395516;19;20395;-57
2022/06/07 00:48:25;;;;;;;5.43;3.10;;;;;;;11.36;100.00;99769.63;7388161;19;20444;-57
2022/06/07 00:51:00;;;;;;;4.40;2.90;;;;;;;11.34;100.00;99779.03;7395495;19;20463;-61
2022/06/07 00:53:32;;;;;;;3.60;2.57;;;;;;;11.33;100.00;99790.19;7393145;19;20431;-57
2022/06/07 00:56:02;;;;;;;4.20;2.50;;;;;;;11.30;100.00;99779.81;7389694;19;20400;-61
2022/06/07 00:58:32;;;;;;;3.47;2.60;;;;;;;11.34;100.00;99782.47;7395764;19;21034;-59
2022/06/07 01:01:02;;;;;;;3.70;2.97;;;;;;;11.32;100.00;99789.34;7385885;19;20388;-59
2022/06/07 01:03:32;;;;;;;4.40;3.30;;;;;;;11.33;100.00;99788.50;7393451;19;20940;-60
2022/06/07 01:11:28;;;;;;;8.10;2.90;;;;;;;11.30;100.00;99796.19;7384168;19;20410;-56
2022/06/07 01:13:58;;;;;;;5.00;2.90;;;;;;;11.30;100.00;99796.19;7393435;19;20410;-57
2022/06/07 01:16:27;;;;;;;4.13;2.90;;;;;;;11.33;100.00;99803.09;7390983;19;20411;-58
2022/06/07 01:18:57;;;;;;;4.87;2.60;;;;;;;11.29;100.00;99803.88;7395844;19;20418;-59
2022/06/07 01:21:35;;;;;;;3.77;2.73;;;;;;;11.30;100.00;99811.66;7390504;19;20419;-59
2022/06/07 01:24:06;;;;;;;3.73;2.73;;;;;;;11.33;100.00;99805.69;7394789;19;20418;-58
2022/06/07 01:26:35;;;;;;;4.07;2.90;;;;;;;11.32;100.00;99810.00;7391310;19;20991;-55
2022/06/07 01:29:06;;;;;;;6.33;2.87;;;;;;;11.33;100.00;99805.69;7394318;19;20390;-59
2022/06/07 01:31:35;;;;;;;3.40;2.53;;;;;;;11.33;100.00;99800.50;7389685;19;21320;-58
2022/06/07 01:34:06;;;;;;;4.67;2.70;;;;;;;11.42;100.00;99798.16;7393833;19;20404;-55
2022/06/07 01:36:38;;;;;;;3.73;2.70;;;;;;;11.42;100.00;99789.53;7389880;19;20427;-57
2022/06/07 01:41:59;;;;;;;4.63;2.70;;;;;;;11.40;100.00;99791.22;7388537;19;20419;-53
2022/06/07 01:44:31;;;;;;;4.37;3.00;;;;;;;11.40;100.00;99792.09;7393481;19;20442;-56
2022/06/07 01:47:02;;;;;;;5.73;2.97;;;;;;;11.41;100.00;99798.13;7389685;19;20407;-54
2022/06/07 01:49:32;;;;;;;4.43;2.90;;;;;;;11.42;100.00;99792.13;7395141;19;20406;-57
2022/06/07 01:52:06;;;;;;;5.50;3.03;;;;;;;11.40;100.00;99797.25;7388482;19;20409;-56
2022/06/07 01:54:35;;;;;;;4.50;2.73;;;;;;;11.41;100.00;99796.41;7393570;19;20420;-54
2022/06/07 01:57:07;;;;;;;3.10;2.67;;;;;;;11.51;100.00;99794.03;7388768;19;20420;-56
2022/06/07 01:59:38;;;;;;;4.90;3.57;;;;;;;11.51;100.00;99794.03;7394703;19;20470;-58
2022/06/07 02:02:09;;;;;;;4.10;2.80;;;;;;;11.50;100.00;99781.97;7388895;19;20414;-55
2022/06/07 02:04:40;;;;;;;4.20;2.50;;;;;;;11.54;100.00;99783.78;7393283;19;20420;-59
2022/06/07 02:07:14;;;;;;;4.90;2.47;;;;;;;11.61;100.00;99781.38;7388940;19;20400;-53
2022/06/07 02:09:45;;;;;;;3.67;2.57;;;;;;;11.70;100.00;99775.50;7393020;19;20445;-54
2022/06/07 02:12:14;;;;;;;4.20;2.73;;;;;;;11.71;100.00;99772.13;7387369;19;20949;-54
2022/06/07 02:14:44;;;;;;;4.00;2.90;;;;;;;11.75;100.00;99776.47;7392606;19;20761;-57
2022/06/07 02:17:14;;;;;;;4.33;2.90;;;;;;;11.98;100.00;99772.63;7389034;19;20423;-57
2022/06/07 02:19:44;;;;;;;4.67;2.43;;;;;;;11.86;100.00;99775.84;7394137;19;20382;-54
2022/06/07 02:22:16;;;;;;;4.00;2.60;;;;;;;11.87;100.00;99782.75;7387107;19;20419;-57
2022/06/07 02:24:46;;;;;;;3.67;2.43;;;;;;;11.81;100.00;99782.63;7392367;19;20409;-56
2022/06/07 02:27:19;;;;;;;5.27;2.47;;;;;;;11.71;100.00;99776.41;7391601;19;20428;-57
2022/06/07 02:29:51;;;;;;;5.37;2.60;;;;;;;11.69;100.00;99784.09;7399492;19;20394;-56
2022/06/07 02:32:23;;;;;;;3.07;2.33;;;;;;;11.82;100.00;99784.38;7394487;19;20416;-59
2022/06/07 02:34:55;;;;;;;4.30;2.43;;;;;;;11.71;100.00;99790.19;7398431;19;20423;-55
2022/06/07 02:37:28;;;;;;;4.37;2.20;;;;;;;11.68;100.00;99791.81;7395045;19;20423;-57
2022/06/07 02:39:59;;;;;;;3.60;2.67;;;;;;;11.67;100.00;99785.78;7401006;19;20400;-58
2022/06/07 02:42:30;;;;;;;3.93;2.20;;;;;;;11.69;100.00;99789.28;7394505;19;20412;-53
2022/06/07 02:45:00;;;;;;;2.87;2.40;;;;;;;11.73;100.00;99791.09;7400711;19;20492;-54
2022/06/07 02:47:30;;;;;;;2.13;1.90;;;;;;;11.72;100.00;99802.28;7395773;19;20418;-56
2022/06/07 02:50:00;;;;;;;4.40;2.87;;;;;;;11.71;100.00;99803.13;7398534;19;20382;-55
2022/06/07 02:52:32;;;;;;;2.83;2.00;;;;;;;11.72;100.00;99794.53;7394837;19;20834;-52
2022/06/07 02:55:02;;;;;;;4.17;2.60;;;;;;;11.74;100.00;99799.69;7400743;19;20410;-58
2022/06/07 02:57:32;;;;;;;3.67;2.60;;;;;;;11.74;100.00;99798.00;7394992;19;20487;-57
2022/06/07 03:00:10;;;;;;;5.40;2.93;;;;;;;11.78;100.00;99798.09;7400146;19;20421;-54
2022/06/07 03:02:39;;;;;;;5.50;2.50;;;;;;;11.82;100.00;99789.53;7394190;19;20504;-56
2022/06/07 03:05:10;;;;;;;4.10;2.50;;;;;;;11.83;100.00;99776.66;7400449;19;20378;-53
2022/06/07 03:07:43;;;;;;;3.17;2.43;;;;;;;11.81;100.00;99773.19;7393286;19;20420;-58
2022/06/07 03:10:14;;;;;;;4.43;2.70;;;;;;;11.82;100.00;99779.19;7397850;19;20395;-57
2022/06/07 03:12:43;;;;;;;4.93;2.37;;;;;;;11.78;100.00;99772.25;7393551;19;20408;-59
2022/06/07 03:15:14;;;;;;;2.97;2.30;;;;;;;11.77;100.00;99778.22;7400097;19;20390;-56
2022/06/07 03:17:44;;;;;;;2.70;1.87;;;;;;;11.86;100.00;99773.28;7394226;19;20409;-58
2022/06/07 03:20:15;;;;;;;2.97;2.30;;;;;;;11.87;100.00;99775.00;7399683;19;20389;-57
2022/06/07 03:22:48;;;;;;;3.00;2.17;;;;;;;11.84;100.00;99772.38;7392820;19;20423;-53
2022/06/07 03:25:17;;;;;;;2.60;1.90;;;;;;;11.86;100.00;99771.53;7399988;19;20398;-55
2022/06/07 03:27:47;;;;;;;3.17;2.27;;;;;;;11.88;100.00;99774.16;7393584;19;20428;-52
2022/06/07 03:30:16;;;;;;;3.40;1.83;;;;;;;11.91;100.00;99769.06;7397393;19;20396;-53
2022/06/07 03:32:46;;;;;;;4.03;2.50;;;;;;;11.89;100.00;99776.78;7393610;19;20508;-56
2022/06/07 03:35:17;;;;;;;4.77;2.20;;;;;;;11.92;100.00;99775.97;7403784;19;20965;-54
2022/06/07 03:37:49;;;;;;;2.23;1.30;;;;;;;11.85;100.00;99774.13;7392269;19;20421;-55
2022/06/07 03:40:42;;;;;;;2.57;1.60;;;;;;;11.89;100.00;99779.38;7398958;19;20987;-54
2022/06/07 03:43:09;;;;;;;2.50;1.70;;;;;;;11.92;100.00;99775.09;7391945;19;20447;-52
2022/06/07 03:45:38;;;;;;;2.90;1.50;;;;;;;11.92;100.00;99773.41;7398754;19;20387;-53
2022/06/07 03:48:09;;;;;;;2.17;1.37;;;;;;;11.96;100.00;99769.16;7395854;19;20519;-56
2022/06/07 03:50:45;;;;;;;3.50;1.80;;;;;;;11.94;100.00;99769.13;7397070;19;20414;-57
2022/06/07 03:53:17;;;;;;;2.83;1.53;;;;;;;11.97;100.00;99773.47;7391431;19;20452;-56
2022/06/07 03:55:47;;;;;;;2.20;1.57;;;;;;;12.00;100.00;99774.41;7398856;19;20393;-58
2022/06/07 03:58:20;;;;;;;2.80;1.43;;;;;;;11.97;100.00;99769.19;7392126;19;20442;-56
2022/06/07 04:00:49;;;;;;;2.77;1.90;;;;;;;12.00;100.00;99755.47;7398567;19;20397;-53
2022/06/07 04:03:19;;;;;;;2.40;1.33;;;;;;;11.99;100.00;99756.28;7392194;19;20410;-60
2022/06/07 04:05:49;;;;;;;2.37;1.60;;;;;;;12.02;100.00;99762.38;7398539;19;20390;-55
2022/06/07 04:08:21;;;;;;;2.30;1.73;;;;;;;12.01;100.00;99750.31;7391179;19;20936;-58
2022/06/07 04:10:53;;;;;;;2.00;1.30;;;;;;;12.03;100.00;99752.94;7396467;19;20913;-60
2022/06/07 04:13:24;;;;;;;2.60;1.63;;;;;;;12.07;100.00;99748.72;7390708;19;20424;-56
2022/06/07 04:15:54;;;;;;;2.57;1.67;;;;;;;12.09;100.00;99754.78;7397989;19;20378;-57
2022/06/07 04:18:24;;;;;;;3.13;2.03;;;;;;;12.07;100.00;99748.72;7392312;19;20501;-57
2022/06/07 04:20:54;;;;;;;2.50;1.70;;;;;;;12.09;100.00;99749.59;7397542;19;20384;-56
2022/06/07 04:23:26;;;;;;;2.53;1.80;;;;;;;12.09;100.00;99747.91;7390230;19;20425;-58
2022/06/07 04:25:56;;;;;;;2.67;1.50;;;;;;;12.08;100.00;99755.63;7397682;19;20392;-59
2022/06/07 04:28:25;;;;;;;3.00;1.97;;;;;;;12.09;100.00;99749.59;7388382;19;20421;-55
2022/06/07 04:30:55;;;;;;;2.90;1.93;;;;;;;12.14;100.00;99745.41;7395877;19;20380;-58
2022/06/07 04:33:25;;;;;;;3.60;1.80;;;;;;;12.13;100.00;99741.06;7389814;19;20437;-59
2022/06/07 04:35:54;;;;;;;3.30;1.80;;;;;;;12.13;100.00;99744.53;7397168;19;20916;-58
2022/06/07 04:38:26;;;;;;;2.80;1.73;;;;;;;12.16;100.00;99738.56;7390563;19;20414;-59
2022/06/07 04:40:56;;;;;;;2.87;1.90;;;;;;;12.18;100.00;99749.81;7397139;19;20390;-55
2022/06/07 04:43:25;;;;;;;4.73;3.17;;;;;;;12.12;100.00;99749.69;7388905;19;20513;-58
2022/06/07 04:46:05;;;;;;;4.20;2.70;;;;;;;12.14;100.00;99750.56;7396496;19;20390;-57
2022/06/07 04:48:35;;;;;;;4.67;3.00;;;;;;;12.14;100.00;99740.22;7395958;19;20436;-57
2022/06/07 04:51:06;;;;;;;7.10;2.40;;;;;;;12.13;100.00;99748.84;7386096;19;20387;-53
2022/06/07 04:53:39;;;;;;;4.57;2.83;;;;;;;12.15;100.00;99747.13;7394861;19;20432;-56
2022/06/07 04:56:10;;;;;;;5.30;2.70;;;;;;;12.14;100.00;99748.00;7390711;19;21031;-55
2022/06/07 04:58:40;;;;;;;4.20;2.90;;;;;;;12.17;100.00;99754.94;7395801;19;20397;-57
2022/06/07 05:01:17;;;;;;;4.63;2.43;;;;;;;12.18;100.00;99754.09;7389712;19;20752;-57
2022/06/07 05:03:47;;;;;;;3.60;2.70;;;;;;;12.20;100.00;99760.19;7394518;19;20441;-56
2022/06/07 05:06:20;;;;;;;5.10;2.57;;;;;;;12.20;100.00;99749.84;7389453;19;20404;-56
2022/06/07 05:08:52;;;;;;;4.50;3.00;;;;;;;12.25;100.00;99754.25;7395973;19;20412;-55
2022/06/07 05:11:22;;;;;;;4.77;2.60;;;;;;;12.22;100.00;99756.78;7389452;19;20427;-51
2022/06/07 05:13:55;;;;;;;4.10;2.40;;;;;;;12.22;100.00;99756.78;7393925;19;20760;-56
2022/06/07 05:16:25;;;;;;;6.20;3.70;;;;;;;12.22;100.00;99759.38;7390582;19;20829;-54
2022/06/07 05:18:56;;;;;;;4.37;3.00;;;;;;;12.19;100.00;99771.38;7395488;19;20402;-56
2022/06/07 05:21:28;;;;;;;8.07;3.50;;;;;;;12.23;100.00;99758.53;7390112;19;20398;-54
2022/06/07 05:24:00;;;;;;;3.73;2.20;;;;;;;12.21;100.00;99767.09;7395104;19;20434;-54
2022/06/07 05:26:33;;;;;;;4.13;2.90;;;;;;;12.25;100.00;99764.59;7389796;19;20759;-56
2022/06/07 05:29:03;;;;;;;5.80;3.70;;;;;;;12.26;100.00;99762.88;7395346;19;20469;-56
2022/06/07 05:31:40;;;;;;;5.57;3.30;;;;;;;12.26;100.00;99768.91;7387308;19;20409;-58
2022/06/07 05:34:09;;;;;;;4.30;2.80;;;;;;;12.24;100.00;99767.13;7394293;19;20398;-59
2022/06/07 05:36:39;;;;;;;5.70;3.60;;;;;;;12.28;100.00;99767.25;7387520;19;20405;-59
2022/06/07 05:39:19;;;;;;;10.27;4.50;;;;;;;12.25;100.00;99768.91;7398610;19;20388;-53
2022/06/07 05:41:49;;;;;;;7.00;4.03;;;;;;;12.28;100.00;99767.25;7385208;19;20978;-54
2022/06/07 05:44:18;;;;;;;6.67;3.37;;;;;;;12.27;100.00;99778.41;7393412;19;20415;-57
2022/06/07 05:46:48;;;;;;;7.93;4.90;;;;;;;12.28;100.00;99774.13;7391417;19;20928;-58
2022/06/07 05:49:19;;;;;;;10.67;4.80;;;;;;;12.28;100.00;99785.34;7394837;19;20453;-60
2022/06/07 05:51:48;;;;;;;8.17;4.63;;;;;;;12.32;100.00;99780.22;7387163;19;20409;-59
2022/06/07 05:54:21;;;;;;;6.97;4.00;;;;;;;12.31;100.00;99781.06;7393332;19;20970;-60
2022/06/07 05:56:50;;;;;;;8.20;4.90;;;;;;;12.36;100.00;99776.84;7388274;19;20417;-55
2022/06/07 05:59:20;;;;;;;9.87;4.60;;;;;;;12.36;100.00;99777.72;7394345;19;20470;-55
2022/06/07 06:01:50;;;;;;;7.93;4.40;;;;;;;12.36;100.00;99779.44;7382753;19;20418;-58
2022/06/07 06:04:20;;;;;;;8.43;5.73;;;;;;;12.40;100.00;99784.69;7391826;19;20418;-60
2022/06/07 06:06:49;;;;;;;8.47;5.10;;;;;;;12.43;100.00;99778.72;7386655;19;20423;-55
2022/06/07 06:12:04;;;;;;;11.23;5.43;;;;;;;12.50;100.00;99779.69;7385523;19;20432;-59
2022/06/07 06:14:34;;;;;;;8.30;5.67;;;;;;;12.52;100.00;99783.19;7392260;19;20478;-56
2022/06/07 06:17:03;;;;;;;8.53;6.00;;;;;;;12.51;100.00;99787.47;7385423;19;20429;-60
2022/06/07 06:19:33;;;;;;;10.80;5.80;;;;;;;12.49;100.00;99773.66;7394050;19;20383;-60
2022/06/07 06:22:02;;;;;;;10.20;6.50;;;;;;;12.50;100.00;99780.56;7384371;19;20418;-57
2022/06/07 06:24:35;;;;;;;12.77;7.50;;;;;;;12.56;100.00;99774.63;7391690;19;20470;-57
2022/06/07 06:27:05;;;;;;;12.00;7.20;;;;;;;12.65;100.00;99779.97;7386624;19;20435;-56
2022/06/07 06:29:36;;;;;;;12.80;8.00;;;;;;;12.76;100.00;99782.75;7393649;19;20394;-60
2022/06/07 06:32:06;;;;;;;14.10;8.67;;;;;;;12.80;100.00;99761.25;7386476;19;20882;-59
2022/06/07 06:34:35;;;;;;;10.57;6.80;;;;;;;12.88;100.00;99763.09;7391718;19;20424;-53
2022/06/07 06:37:06;;;;;;;15.07;9.17;;;;;;;12.93;100.00;99762.31;7385898;19;20417;-56
2022/06/07 06:39:39;;;;;;;17.40;8.67;;;;;;;12.85;100.00;99757.84;7392782;19;20392;-53
2022/06/07 06:42:09;;;;;;;15.30;7.93;;;;;;;12.85;100.00;99770.78;7385758;19;20414;-56
2022/06/07 06:44:50;;;;;;;12.37;6.97;;;;;;;12.84;100.00;99769.94;7390369;19;20415;-56
2022/06/07 06:47:19;;;;;;;11.17;8.20;;;;;;;12.86;100.00;99757.03;7387661;19;20419;-59
2022/06/07 06:49:49;;;;;;;14.23;8.60;;;;;;;12.87;100.00;99762.22;7393140;19;20398;-58
2022/06/07 06:52:20;;;;;;;13.93;8.00;;;;;;;12.91;100.00;99765.72;7385340;19;20839;-56
2022/06/07 06:54:53;;;;;;;13.97;8.10;;;;;;;12.92;100.00;99767.47;7391543;19;20408;-58
2022/06/07 06:57:22;;;;;;;15.03;9.73;;;;;;;12.96;100.00;99774.44;7383180;19;20930;-58
2022/06/07 06:59:54;;;;;;;20.37;9.60;;;;;;;12.92;100.00;99767.47;7393044;19;20395;-57
2022/06/07 07:02:23;;;;;;;17.07;10.53;;;;;;;12.92;100.00;99755.41;7384516;19;20423;-58
2022/06/07 07:04:53;;;;;;;13.37;9.50;;;;;;;12.88;100.00;99760.50;7391489;19;20971;-57
2022/06/07 07:07:22;;;;;;;17.97;10.83;;;;;;;12.96;100.00;99775.31;7387037;19;20957;-58
2022/06/07 07:09:56;;;;;;;29.13;12.33;;;;;;;13.00;100.00;99765.88;7392392;19;20729;-58
2022/06/07 07:12:26;;;;;;;16.50;9.27;;;;;;;13.05;100.00;99769.41;7387638;19;20965;-56
2022/06/07 07:14:55;;;;;;;29.03;14.57;;;;;;;13.17;100.00;99773.06;7396945;19;20426;-56
2022/06/07 07:17:27;;;;;;;26.23;14.40;;;;;;;13.24;100.00;99754.16;7394096;19;20871;-55
2022/06/07 07:19:57;;;;;;;21.03;11.10;;;;;;;13.25;100.00;99745.53;7400307;19;20906;-51
2022/06/07 07:22:27;;;;;;;17.10;9.90;;;;;;;13.30;100.00;99743.88;7390583;19;20425;-54
2022/06/07 07:25:00;;;;;;;13.60;9.33;;;;;;;13.33;100.00;99733.56;7396792;19;20416;-55
2022/06/07 07:27:30;;;;;;;20.07;10.70;;;;;;;13.39;100.00;99731.91;7393258;19;20442;-59
2022/06/07 07:29:59;;;;;;;10.67;6.50;;;;;;;13.39;100.00;99732.78;7398929;19;20387;-56
2022/06/07 07:32:30;;;;;;;15.53;9.50;;;;;;;13.39;100.00;99725.03;7394462;19;20793;-55
2022/06/07 07:35:00;;;;;;;13.77;6.50;;;;;;;13.43;100.00;99723.34;7399101;19;20466;-58
2022/06/07 07:37:31;;;;;;;22.20;7.40;;;;;;;13.50;100.00;99726.03;7394281;19;20455;-57
2022/06/07 07:40:03;;;;;;;17.33;7.53;;;;;;;13.65;100.00;99724.53;7398888;19;21255;-59
2022/06/07 07:42:33;;;;;;;21.93;10.30;;;;;;;13.64;100.00;99713.28;7390264;19;20426;-56
2022/06/07 07:45:03;;;;;;;10.90;6.90;;;;;;;13.72;100.00;99715.09;7397948;19;20934;-58
2022/06/07 07:47:32;;;;;;;26.40;10.60;;;;;;;13.75;100.00;99697.00;7394188;19;20427;-57
2022/06/07 07:50:02;;;;;;;25.07;11.77;;;;;;;13.73;100.00;99706.44;7397889;19;20410;-57
2022/06/07 07:52:32;;;;;;;26.23;12.83;;;;;;;13.73;100.00;99706.44;7388834;19;20435;-53
2022/06/07 07:55:04;;;;;;;25.13;11.90;;;;;;;13.70;100.00;99706.44;7398369;19;20399;-58
2022/06/07 07:57:34;;;;;;;19.73;10.20;;;;;;;13.79;100.00;99716.91;7392477;19;20940;-57
2022/06/07 08:00:04;;;;;;;18.13;6.73;;;;;;;13.77;100.00;99700.47;7398124;19;20388;-56
2022/06/07 08:02:33;;;;;;;14.87;8.63;;;;;;;13.74;100.00;99708.22;7391630;19;20423;-57
2022/06/07 08:05:03;;;;;;;22.53;11.57;;;;;;;13.77;100.00;99705.66;7398128;19;20389;-56
2022/06/07 08:07:33;;;;;;;11.40;8.07;;;;;;;13.82;100.00;99706.56;7389847;19;20485;-58
2022/06/07 08:10:25;;;;;;;26.60;14.87;;;;;;;13.84;100.00;99707.44;7395232;19;20400;-52
2022/06/07 08:12:58;;;;;;;22.70;11.50;;;;;;;13.87;100.00;99717.88;7391739;19;20431;-58
2022/06/07 08:15:31;;;;;;;18.50;10.53;;;;;;;13.90;100.00;99704.94;7396621;19;20421;-58
2022/06/07 08:18:02;;;;;;;20.63;11.13;;;;;;;13.96;100.00;99711.03;7391406;19;20440;-57
2022/06/07 08:20:32;;;;;;;13.77;6.20;;;;;;;14.00;100.00;99712.84;7396105;19;20384;-56
2022/06/07 08:23:03;;;;;;;11.17;7.60;;;;;;;14.04;100.00;99706.81;7386719;19;20506;-58
2022/06/07 08:25:37;;;;;;;21.33;11.40;;;;;;;14.05;100.00;99703.34;7394830;19;20792;-55
2022/06/07 08:28:08;;;;;;;11.80;6.17;;;;;;;14.21;100.00;99721.69;7386857;19;21056;-61
2022/06/07 08:30:39;;;;;;;9.83;6.30;;;;;;;14.18;100.00;99704.38;7396640;19;20399;-57
2022/06/07 08:38:33;;;;;;;10.83;5.50;;;;;;;14.17;100.00;99713.00;7395300;19;20405;-57
2022/06/07 08:41:06;;;;;;;8.33;5.87;;;;;;;14.10;100.00;99713.81;7388717;19;20396;-52
2022/06/07 08:43:36;;;;;;;23.60;12.53;;;;;;;14.06;100.00;99709.41;7393506;19;20434;-52
2022/06/07 08:46:06;;;;;;;14.10;7.30;;;;;;;14.03;100.00;99710.25;7388857;19;20390;-58
2022/06/07 08:48:42;;;;;;;9.07;6.13;;;;;;;14.14;100.00;99721.63;7392817;19;20392;-58
2022/06/07 08:51:20;;;;;;;8.20;5.57;;;;;;;14.18;100.00;99719.94;7390496;19;20920;-54
2022/06/07 08:53:53;;;;;;;11.50;5.67;;;;;;;14.28;100.00;99706.22;7393028;19;20436;-53
2022/06/07 08:56:29;;;;;;;10.93;6.47;;;;;;;14.27;100.00;99708.78;7388890;19;20419;-53
2022/06/07 08:59:01;;;;;;;10.60;6.30;;;;;;;14.30;100.00;99712.25;7395773;19;20917;-54
2022/06/07 09:01:34;;;;;;;8.77;5.77;;;;;;;14.43;100.00;99704.59;7386957;19;20499;-57
2022/06/07 09:04:17;;;;;;;10.40;7.10;;;;;;;14.62;100.00;99692.66;7393772;19;20511;-53
2022/06/07 09:06:48;;;;;;;12.40;6.60;;;;;;;14.66;100.00;99688.38;7389582;19;20517;-54
2022/06/07 09:09:20;;;;;;;13.10;7.53;;;;;;;14.72;100.00;99684.06;7396270;19;20390;-53
2022/06/07 09:12:09;;;;;;;14.30;7.60;;;;;;;14.61;100.00;99687.47;7388723;19;20412;-55
2022/06/07 09:14:43;;;;;;;10.50;6.40;;;;;;;14.74;100.00;99683.22;7393933;19;20499;-55
2022/06/07 09:17:19;;;;;;;12.20;6.70;;;;;;;14.91;100.00;99689.44;7388909;19;20520;-56
2022/06/07 09:19:51;;;;;;;15.20;6.10;;;;;;;14.84;100.00;99687.66;7397281;19;20729;-55
2022/06/07 09:22:29;;;;;;;15.67;9.40;;;;;;;14.95;100.00;99669.53;7387842;19;20424;-54
2022/06/07 09:25:02;;;;;;;14.53;8.93;;;;;;;15.19;100.00;99692.22;7395571;19;20412;-56
2022/06/07 09:27:36;;;;;;;13.13;6.77;;;;;;;15.22;100.00;99676.63;7389627;19;20410;-52
2022/06/07 09:30:14;;;;;;;8.17;6.23;;;;;;;15.27;100.00;99661.06;7395751;19;20392;-58
2022/06/07 09:32:44;;;;;;;16.13;8.60;;;;;;;15.26;100.00;99669.72;7388174;19;20514;-54
2022/06/07 09:35:20;;;;;;;9.77;6.20;;;;;;;15.19;100.00;99670.56;7395643;19;20437;-53
2022/06/07 09:37:54;;;;;;;9.40;5.27;;;;;;;15.29;100.00;99668.88;7385430;19;20428;-57
2022/06/07 09:40:27;;;;;;;6.80;4.50;;;;;;;15.46;100.00;99648.16;7395158;19;20381;-54
2022/06/07 09:43:04;;;;;;;7.60;5.20;;;;;;;15.68;100.00;99641.31;7387755;19;20463;-53
2022/06/07 09:45:39;;;;;;;12.23;6.90;;;;;;;15.85;100.00;99661.28;7394567;19;20387;-55
2022/06/07 09:48:25;;;;;;;11.83;7.90;;;;;;;16.01;100.00;99639.66;7387666;19;20427;-57
2022/06/07 09:51:00;;;;;;;10.63;5.87;;;;;;;16.12;100.00;99650.13;7394651;19;20753;-53
2022/06/07 09:53:35;;;;;;;16.10;9.90;;;;;;;15.87;100.00;99633.53;7392210;19;20771;-56
2022/06/07 09:56:21;;;;;;;13.20;7.63;;;;;;;15.51;100.00;99647.34;7388859;19;20384;-55
2022/06/07 09:59:06;;;;;;;12.00;6.17;;;;;;;15.48;100.00;99639.50;7394943;19;20400;-55
2022/06/07 10:01:42;;;;;;;9.70;6.43;;;;;;;15.66;100.00;99640.44;7387186;19;20817;-55
2022/06/07 10:04:18;;;;;;;12.13;5.37;;;;;;;15.63;100.00;99640.41;7397059;19;20454;-54
2022/06/07 10:06:51;;;;;;;22.30;9.20;;;;;;;15.57;100.00;99630.88;7388883;19;20406;-58
2022/06/07 10:09:38;;;;;;;17.00;8.33;;;;;;;15.54;100.00;99641.28;7394199;19;20461;-57
2022/06/07 10:12:16;;;;;;;9.77;5.83;;;;;;;15.44;100.00;99632.53;7387823;19;20419;-58
2022/06/07 10:15:01;;;;;;;54.17;15.33;;;;;;;15.41;100.00;99634.28;7391041;19;20431;-55
2022/06/07 10:17:49;;;;;;;9.90;5.87;;;;;;;15.43;100.00;99630.81;7387438;19;20479;-57
2022/06/07 10:20:26;;;;;;;43.90;18.13;;;;;;;15.46;100.00;99615.25;7391981;19;20399;-58
2022/06/07 10:23:11;;;;;;;36.17;14.10;;;;;;;15.56;100.00;99633.47;7386793;19;20437;-55
2022/06/07 10:25:59;;;;;;;35.27;11.60;;;;;;;15.65;100.00;99633.50;7392573;19;20380;-55
2022/06/07 10:28:33;;;;;;;17.93;7.40;;;;;;;15.65;100.00;99623.97;7392117;19;20423;-50
2022/06/07 10:31:12;;;;;;;21.90;8.07;;;;;;;15.71;100.00;99623.13;7386498;19;20872;-52
2022/06/07 10:33:48;;;;;;;16.93;7.00;;;;;;;15.68;100.00;99630.91;7391008;19;20428;-54
2022/06/07 10:36:28;;;;;;;12.13;7.37;;;;;;;15.70;100.00;99617.91;7385788;19;20377;-56
2022/06/07 10:39:08;;;;;;;23.53;9.63;;;;;;;15.65;100.00;99603.16;7393507;19;20460;-55
2022/06/07 10:41:48;;;;;;;32.30;13.30;;;;;;;15.48;100.00;99615.25;7387420;19;20412;-57
2022/06/07 10:44:29;;;;;;;38.00;14.80;;;;;;;15.48;100.00;99604.88;7390678;19;20499;-55
2022/06/07 10:47:07;;;;;;;8.37;6.07;;;;;;;15.44;100.00;99597.91;7386800;19;20419;-57
2022/06/07 10:49:46;;;;;;;51.97;17.30;;;;;;;15.27;100.00;99610.84;7399937;19;20789;-57
2022/06/07 10:52:34;;;;;;;15.20;7.80;;;;;;;15.13;100.00;99616.84;7394755;19;20439;-55
2022/06/07 10:55:13;;;;;;;22.73;10.60;;;;;;;15.12;100.00;99618.56;7399883;19;20462;-58
2022/06/07 10:57:48;;;;;;;19.30;9.60;;;;;;;15.07;100.00;99625.47;7393662;19;20436;-57
2022/06/07 11:00:22;;;;;;;9.47;6.37;;;;;;;15.02;100.00;99631.50;7400130;19;20380;-59
2022/06/07 11:03:00;;;;;;;10.00;6.47;;;;;;;15.07;100.00;99643.66;7394472;19;20448;-57
2022/06/07 11:11:05;;;;;;;13.30;7.27;;;;;;;15.57;100.00;99640.38;7395847;19;20399;-54
2022/06/07 11:13:42;;;;;;;10.13;6.80;;;;;;;15.82;100.00;99635.25;7397543;19;20425;-52
2022/06/07 11:16:18;;;;;;;10.37;7.23;;;;;;;15.63;100.00;99641.28;7393331;19;20918;-56
2022/06/07 11:18:50;;;;;;;12.87;7.50;;;;;;;15.52;100.00;99641.25;7399196;19;20383;-50
2022/06/07 11:21:28;;;;;;;9.33;7.47;;;;;;;15.40;100.00;99654.22;7392995;19;20395;-55
2022/06/07 11:24:09;;;;;;;9.80;7.37;;;;;;;15.19;100.00;99658.44;7397074;19;20499;-56
2022/06/07 11:26:55;;;;;;;14.27;8.00;;;;;;;15.10;100.00;99667.06;7392800;19;20487;-55
2022/06/07 11:29:27;;;;;;;13.07;7.93;;;;;;;14.93;100.00;99664.34;7399341;19;20768;-57
2022/06/07 11:31:57;;;;;;;14.20;7.87;;;;;;;14.82;100.00;99671.22;7388668;19;20404;-53
2022/06/07 11:34:31;;;;;;;14.90;9.10;;;;;;;14.85;100.00;99682.47;7396281;19;20427;-55
2022/06/07 11:37:05;;;;;;;13.50;9.10;;;;;;;14.95;100.00;99673.03;7392308;19;20440;-54
2022/06/07 11:39:53;;;;;;;13.17;8.63;;;;;;;14.86;100.00;99680.75;7402839;19;20394;-56
2022/06/07 11:42:30;;;;;;;12.57;8.87;;;;;;;14.88;100.00;99684.22;7391588;19;20437;-54
2022/06/07 11:45:19;;;;;;;11.60;8.73;;;;;;;14.74;100.00;99691.91;7397709;19;20443;-56
2022/06/07 11:48:19;;;;;;;16.33;10.20;;;;;;;14.62;100.00;99696.97;7392354;19;20768;-56
2022/06/07 11:50:57;;;;;;;17.30;9.03;;;;;;;14.40;100.00;99704.56;7397007;19;20404;-50
2022/06/07 11:53:33;;;;;;;18.27;10.60;;;;;;;14.14;100.00;99703.47;7396183;19;20956;-55
2022/06/07 11:56:33;;;;;;;14.90;10.10;;;;;;;14.09;100.00;99705.13;7392498;19;20399;-54
2022/06/07 11:59:05;;;;;;;17.17;11.07;;;;;;;14.23;100.00;99696.63;7394848;19;20392;-54
2022/06/07 12:01:42;;;;;;;14.50;10.57;;;;;;;14.40;100.00;99708.03;7391553;19;20426;-52
2022/06/07 12:04:33;;;;;;;18.93;11.60;;;;;;;14.70;100.00;99706.56;7396168;19;20498;-54
2022/06/07 12:07:18;;;;;;;14.90;10.60;;;;;;;14.90;100.00;99700.69;7390917;19;20437;-52
2022/06/07 12:09:51;;;;;;;15.90;11.80;;;;;;;14.76;100.00;99697.97;7397636;19;20386;-55